Time;durP1;ratioP1;P1;durP2;ratioP2;P2;SDS_P1;SDS_P2;PMS_P1;PMS_P2;Temp;Humidity;BMP_temperature;BMP_pressure;BME280_temperature;BME280_humidity;BME280_pressure;Samples;Min_cycle;Max_cycle;Signal;HPM_P1;HPM_P2
2022/03/20 00:00:12;;;;;;;14.07;8.83;;;7.30;90.70;;;7.61;47.29;101960.00;5031302;28;20642;-66
2022/03/20 00:02:40;;;;;;;16.30;10.20;;;7.20;90.70;;;7.64;47.21;101943.47;5032931;28;20638;-66
2022/03/20 00:05:08;;;;;;;16.53;10.00;;;7.30;90.50;;;7.66;47.08;101955.50;5053523;28;20640;-66
2022/03/20 00:07:37;;;;;;;14.73;9.23;;;7.30;90.20;;;7.66;46.09;101942.50;5048631;28;20663;-66
2022/03/20 00:10:07;;;;;;;15.27;8.83;;;7.30;90.20;;;7.56;47.25;101943.75;5063387;28;20731;-65
2022/03/20 00:12:35;;;;;;;16.10;9.33;;;7.20;90.60;;;7.54;47.64;101940.38;5053815;28;20622;-66
2022/03/20 00:15:04;;;;;;;14.20;8.83;;;7.20;90.60;;;7.53;47.27;101937.84;5053172;28;21021;-66
2022/03/20 00:17:31;;;;;;;16.63;9.80;;;7.10;90.80;;;7.53;46.50;101927.44;5036985;28;20627;-66
2022/03/20 00:19:58;;;;;;;16.20;9.20;;;7.10;90.60;;;7.60;47.21;101932.31;5035909;28;21202;-66
2022/03/20 00:22:26;;;;;;;17.30;9.90;;;7.20;90.50;;;7.49;47.15;101924.13;5034286;28;20734;-66
2022/03/20 00:24:53;;;;;;;16.97;10.43;;;7.10;90.60;;;7.51;47.28;101908.47;5033854;28;20627;-66
2022/03/20 00:27:20;;;;;;;14.23;8.23;;;7.10;90.90;;;7.50;47.42;101911.97;5054427;28;20654;-66
2022/03/20 00:29:47;;;;;;;16.50;9.50;;;7.10;90.90;;;7.49;47.08;101905.09;5072890;28;21005;-66
2022/03/20 00:32:14;;;;;;;15.30;8.73;;;7.10;90.40;;;7.47;47.84;101899.13;5052415;28;20634;-66
2022/03/20 00:34:41;;;;;;;16.30;9.00;;;7.10;90.70;;;7.46;48.06;101895.66;5035959;28;20630;-66
2022/03/20 00:37:09;;;;;;;18.47;9.73;;;7.10;91.00;;;7.43;47.66;101890.56;5035889;28;20619;-66
2022/03/20 00:39:36;;;;;;;15.02;8.73;;;7.00;91.10;;;7.41;47.33;101884.59;5052903;28;20669;-66
2022/03/20 00:42:04;;;;;;;20.43;8.87;;;7.00;90.80;;;7.38;46.94;101883.88;5051399;28;20200;-66
2022/03/20 00:44:32;;;;;;;16.30;8.23;;;7.00;90.50;;;7.41;46.51;101889.78;5035573;28;21241;-66
2022/03/20 00:46:59;;;;;;;15.10;8.33;;;7.00;90.30;;;7.33;46.79;101881.47;5052479;28;20617;-66
2022/03/20 00:49:26;;;;;;;15.00;8.23;;;7.00;90.30;;;7.35;46.56;101882.25;5036388;28;20639;-66
2022/03/20 00:51:52;;;;;;;17.10;9.30;;;7.00;90.20;;;7.38;46.85;101884.75;5053442;28;21173;-67
2022/03/20 00:54:19;;;;;;;15.10;9.48;;;7.00;90.10;;;7.28;47.04;101885.16;5036007;28;21207;-66
2022/03/20 00:56:46;;;;;;;17.90;8.70;;;6.90;90.10;;;7.27;47.55;101881.72;5051774;28;20208;-65
2022/03/20 00:59:14;;;;;;;14.50;8.60;;;6.90;90.20;;;7.21;47.11;101881.94;5034882;28;20615;-65
2022/03/20 01:01:42;;;;;;;17.43;10.43;;;6.80;90.30;;;7.20;47.06;101876.81;5043201;28;20661;-66
2022/03/20 01:04:09;;;;;;;16.85;9.95;;;6.90;90.50;;;7.18;47.92;101887.25;5044024;28;21203;-65
2022/03/20 01:06:36;;;;;;;18.40;10.07;;;6.90;90.90;;;7.20;48.44;101882.84;5034919;28;20292;-65
2022/03/20 01:09:04;;;;;;;16.60;8.75;;;6.80;91.00;;;7.16;48.05;101885.59;5036137;28;20658;-65
2022/03/20 01:11:32;;;;;;;17.37;10.00;;;6.80;91.30;;;7.14;47.53;101883.06;5053250;28;20201;-66
2022/03/20 01:13:59;;;;;;;19.60;9.37;;;6.80;91.20;;;7.09;47.91;101877.22;5035459;28;20633;-67
2022/03/20 01:16:26;;;;;;;11.83;6.40;;;6.80;91.10;;;7.14;48.39;101877.03;5034081;28;20602;-65
2022/03/20 01:18:53;;;;;;;19.07;9.20;;;6.80;90.90;;;7.10;48.21;101873.72;5052490;28;20620;-65
2022/03/20 01:21:20;;;;;;;16.52;9.35;;;6.80;90.80;;;7.12;47.54;101877.09;5033932;28;20978;-65
2022/03/20 01:23:47;;;;;;;16.60;9.27;;;6.80;90.90;;;7.11;47.56;101875.44;5035761;28;20209;-65
2022/03/20 01:26:14;;;;;;;17.20;8.93;;;6.80;91.00;;;7.14;48.40;101875.28;5050581;28;20646;-65
2022/03/20 01:28:41;;;;;;;18.48;9.77;;;6.80;91.10;;;7.09;47.99;101872.03;5048673;28;20662;-66
2022/03/20 01:31:10;;;;;;;17.23;10.05;;;6.70;91.20;;;7.04;48.30;101868.75;5060270;28;20288;-65
2022/03/20 01:33:37;;;;;;;14.40;8.90;;;6.70;91.30;;;7.05;47.58;101863.50;5052223;28;20201;-65
2022/03/20 01:36:04;;;;;;;18.87;10.73;;;6.70;91.20;;;7.05;48.29;101862.66;5051063;28;20616;-65
2022/03/20 01:38:31;;;;;;;15.50;9.57;;;6.70;91.50;;;7.02;48.51;101865.38;5052412;28;21297;-65
2022/03/20 01:41:00;;;;;;;17.90;10.00;;;6.70;91.80;;;6.90;48.89;101852.84;5035065;28;20292;-65
2022/03/20 01:43:27;;;;;;;18.55;10.10;;;6.60;91.90;;;6.94;49.02;101846.66;5052004;28;20616;-65
2022/03/20 01:45:54;;;;;;;17.10;9.30;;;6.60;92.00;;;6.89;48.82;101853.75;5021054;28;20319;-65
2022/03/20 01:48:21;;;;;;;14.68;9.20;;;6.50;92.00;;;6.89;49.24;101844.25;5032449;28;20403;-65
2022/03/20 01:50:48;;;;;;;18.00;10.00;;;6.50;92.10;;;6.86;48.95;101836.56;5032311;28;20202;-65
2022/03/20 01:53:19;;;;;;;14.45;8.77;;;6.50;92.10;;;6.87;49.24;101830.47;5015198;28;20725;-65
2022/03/20 01:55:46;;;;;;;17.90;9.38;;;6.50;92.10;;;6.83;48.58;101839.28;5021614;28;20308;-65
2022/03/20 01:58:17;;;;;;;19.90;9.98;;;6.50;92.10;;;6.81;48.85;101820.34;5035013;28;20212;-65
2022/03/20 02:00:44;;;;;;;14.50;8.23;;;6.40;92.20;;;6.85;49.35;101826.25;5028843;28;20198;-65
2022/03/20 02:03:11;;;;;;;21.33;10.65;;;6.50;92.20;;;6.83;49.28;101821.13;5068468;28;20988;-65
2022/03/20 02:05:41;;;;;;;15.65;9.02;;;6.50;92.20;;;6.87;48.79;101817.50;5050408;28;20221;-65
2022/03/20 02:08:11;;;;;;;18.80;9.65;;;6.60;92.20;;;6.88;48.88;101821.78;5023290;28;20224;-65
2022/03/20 02:10:40;;;;;;;17.10;9.15;;;6.50;92.20;;;6.85;49.36;101813.28;5044155;28;20228;-65
2022/03/20 02:13:07;;;;;;;17.45;9.80;;;6.50;92.20;;;6.87;49.18;101806.28;5033669;28;20579;-65
2022/03/20 02:15:36;;;;;;;19.13;9.73;;;6.50;92.10;;;6.90;48.64;101804.41;5029219;28;20799;-65
2022/03/20 02:18:06;;;;;;;15.35;8.85;;;6.50;92.10;;;6.93;48.54;101804.31;5034258;28;20208;-64
2022/03/20 02:20:33;;;;;;;17.47;9.50;;;6.60;92.00;;;6.89;49.11;101801.88;5031899;28;20574;-65
2022/03/20 02:23:00;;;;;;;18.97;9.53;;;6.50;92.00;;;6.92;48.75;101801.78;5045601;28;20727;-65
2022/03/20 02:25:29;;;;;;;23.33;9.70;;;6.50;92.40;;;6.89;49.26;101794.09;5032060;28;21044;-65
2022/03/20 02:27:56;;;;;;;13.00;7.25;;;6.50;92.20;;;6.93;49.23;101798.25;5050003;28;20695;-66
2022/03/20 02:30:23;;;;;;;19.50;8.93;;;6.60;92.00;;;6.86;48.66;101789.00;5050717;28;20199;-65
2022/03/20 02:32:52;;;;;;;15.50;8.15;;;6.50;92.00;;;6.90;48.78;101782.78;5034502;28;20201;-65
2022/03/20 02:35:20;;;;;;;15.70;9.13;;;6.60;91.80;;;6.82;48.87;101787.44;5051575;28;20739;-65
2022/03/20 02:37:51;;;;;;;14.20;8.18;;;6.50;91.60;;;6.79;48.09;101779.78;5034297;28;20260;-65
2022/03/20 02:40:21;;;;;;;16.02;8.27;;;6.50;91.40;;;6.73;48.09;101780.03;5043105;28;20232;-65
2022/03/20 02:42:51;;;;;;;16.55;8.60;;;6.40;91.40;;;6.71;47.75;101772.28;5070567;28;20253;-65
2022/03/20 02:45:21;;;;;;;12.18;6.38;;;6.40;91.20;;;6.70;48.36;101774.94;5035677;28;20331;-65
2022/03/20 02:47:50;;;;;;;13.25;7.72;;;6.40;91.00;;;6.68;48.14;101771.56;5051188;28;20201;-65
2022/03/20 02:50:31;;;;;;;17.42;9.23;;;6.30;90.80;;;6.63;47.52;101758.75;5033282;28;20205;-65
2022/03/20 02:53:04;;;;;;;13.45;8.25;;;6.30;90.50;;;6.69;47.25;101763.72;5038458;28;20193;-65
2022/03/20 02:55:37;;;;;;;18.95;8.95;;;6.30;90.50;;;6.63;47.33;101753.59;5042779;28;20249;-65
2022/03/20 02:58:11;;;;;;;16.55;8.57;;;6.30;90.40;;;6.70;47.24;101765.41;5032328;28;20237;-65
2022/03/20 03:00:40;;;;;;;14.65;7.93;;;6.40;90.20;;;6.63;47.18;101761.34;5033100;28;20204;-65
2022/03/20 03:03:11;;;;;;;14.02;7.65;;;6.30;90.20;;;6.61;47.20;101754.53;5047835;28;20204;-63
2022/03/20 03:05:40;;;;;;;18.58;8.82;;;6.30;90.30;;;6.61;47.11;101763.16;5050363;28;20307;-66
2022/03/20 03:10:56;;;;;;;16.73;8.35;;;6.20;91.40;;;6.56;49.09;101766.84;5038343;28;20610;-67
2022/03/20 03:13:38;;;;;;;16.98;8.98;;;6.20;92.00;;;6.55;49.58;101768.59;5033856;28;20244;-65
2022/03/20 03:16:11;;;;;;;19.35;8.02;;;6.20;92.50;;;6.48;50.58;101763.66;5050486;28;20708;-65
2022/03/20 03:18:42;;;;;;;15.30;8.73;;;6.20;93.30;;;6.43;50.88;101758.66;5051341;28;20704;-65
2022/03/20 03:21:16;;;;;;;15.27;8.32;;;6.10;93.70;;;6.36;50.94;101746.84;5049382;28;20585;-65
2022/03/20 03:23:44;;;;;;;18.60;9.07;;;6.00;94.00;;;6.36;50.09;101751.16;5049856;28;20844;-65
2022/03/20 03:26:12;;;;;;;13.60;8.55;;;6.10;93.50;;;6.33;50.00;101753.88;5046109;28;20236;-65
2022/03/20 03:28:40;;;;;;;19.35;9.65;;;6.00;92.90;;;6.36;49.32;101754.63;5051964;28;20718;-65
2022/03/20 03:31:11;;;;;;;16.48;7.82;;;6.00;92.30;;;6.37;48.78;101763.25;5044566;28;20201;-65
2022/03/20 03:36:27;;;;;;;6.53;3.83;;;6.00;92.40;;;6.31;50.27;101760.84;5052639;28;20236;-65
2022/03/20 03:38:55;;;;;;;14.40;7.82;;;6.00;93.10;;;6.24;51.60;101758.50;5037684;28;20208;-65
2022/03/20 03:41:24;;;;;;;17.00;8.18;;;6.00;94.10;;;6.25;50.74;101767.97;5053836;28;20205;-65
2022/03/20 03:43:50;;;;;;;14.88;8.43;;;5.90;93.80;;;6.24;51.54;101768.00;5037314;28;20732;-65
2022/03/20 03:46:17;;;;;;;14.32;7.60;;;5.90;94.30;;;6.29;49.63;101755.72;5050675;28;20288;-65
2022/03/20 03:48:45;;;;;;;10.98;6.70;;;6.00;93.40;;;6.30;49.39;101757.44;5032459;28;20232;-66
2022/03/20 03:51:11;;;;;;;11.52;6.35;;;6.00;92.50;;;6.36;48.39;101764.97;5033974;28;20204;-65
2022/03/20 03:53:38;;;;;;;9.85;6.25;;;6.00;91.80;;;6.38;48.42;101758.00;5036522;28;20219;-65
2022/03/20 03:56:06;;;;;;;12.32;6.72;;;6.00;91.30;;;6.33;50.29;101749.53;5047255;28;20202;-65
2022/03/20 03:58:33;;;;;;;18.52;9.30;;;6.00;92.60;;;6.30;50.76;101748.81;5053052;28;20201;-65
2022/03/20 04:01:00;;;;;;;17.90;8.75;;;6.00;93.90;;;6.23;51.27;101745.59;5053088;28;20208;-65
2022/03/20 04:03:27;;;;;;;15.32;8.52;;;5.90;94.70;;;6.23;51.00;101750.78;5054421;28;20627;-65
2022/03/20 04:06:01;;;;;;;13.85;7.40;;;5.90;94.50;;;6.20;51.76;101746.53;5035750;28;20730;-65
2022/03/20 04:08:29;;;;;;;8.00;5.15;;;5.90;94.90;;;6.21;51.75;101752.59;5043383;28;20219;-65
2022/03/20 04:10:56;;;;;;;16.05;8.80;;;5.90;95.30;;;6.11;52.66;101743.44;5053458;28;20201;-65
2022/03/20 04:13:23;;;;;;;18.33;7.95;;;5.80;95.70;;;6.07;52.51;101740.09;5053474;28;20679;-65
2022/03/20 04:15:50;;;;;;;10.80;6.90;;;5.80;96.40;;;5.85;53.81;101739.19;5047223;28;20313;-66
2022/03/20 04:18:17;;;;;;;11.07;6.47;;;5.60;96.90;;;5.89;53.81;101742.50;5058918;28;20209;-65
2022/03/20 04:20:49;;;;;;;21.10;9.65;;;5.60;97.50;;;5.84;53.55;101734.03;5053142;28;20681;-65
2022/03/20 04:26:02;;;;;;;14.25;7.75;;;5.60;97.50;;;5.90;53.23;101739.84;5046690;28;20304;-65
2022/03/20 04:28:29;;;;;;;15.48;9.05;;;5.60;97.30;;;5.92;53.14;101735.47;5032492;28;20771;-66
2022/03/20 04:30:56;;;;;;;16.45;8.00;;;5.70;97.00;;;6.07;51.86;101753.06;5037150;28;20276;-65
2022/03/20 04:33:26;;;;;;;15.57;8.50;;;5.70;95.70;;;6.13;51.29;101752.84;5052624;28;20197;-65
2022/03/20 04:35:53;;;;;;;16.15;8.52;;;5.80;95.60;;;6.12;51.31;101756.34;5052244;28;20591;-65
2022/03/20 04:38:21;;;;;;;18.20;10.80;;;5.80;95.30;;;6.12;52.95;101752.91;5053552;28;20295;-65
2022/03/20 04:40:49;;;;;;;13.20;8.50;;;5.90;96.60;;;6.06;53.20;101751.38;5051720;28;20209;-65
2022/03/20 04:43:17;;;;;;;17.02;9.13;;;5.80;97.20;;;6.06;53.27;101746.22;5033777;28;20209;-65
2022/03/20 04:45:44;;;;;;;14.23;6.75;;;5.80;97.40;;;6.00;53.60;101748.16;5066759;22;20229;-68
2022/03/20 04:59:13;;;;;;;13.48;7.72;;;5.70;99.00;;;5.82;54.96;101739.25;5032100;28;20206;-67
2022/03/20 05:01:40;;;;;;;16.70;8.60;;;5.60;99.70;;;5.79;55.42;101741.94;5045395;28;20205;-67
2022/03/20 05:04:07;;;;;;;19.23;9.63;;;5.60;99.90;;;5.79;55.40;101736.75;5022733;28;20720;-67
2022/03/20 05:06:34;;;;;;;11.60;6.35;;;5.60;99.90;;;5.86;55.07;101748.63;5047700;28;20320;-67
2022/03/20 05:14:32;;;;;;;16.92;8.73;;;5.60;99.90;;;5.81;53.54;101754.84;5031554;28;20482;-67
2022/03/20 05:17:09;;;;;;;17.95;9.60;;;5.60;98.70;;;5.88;54.40;101764.13;5049536;28;20198;-67
2022/03/20 05:19:38;;;;;;;15.95;7.53;;;5.60;99.60;;;5.96;52.23;101770.72;5051295;28;20418;-67
2022/03/20 05:22:10;;;;;;;14.77;8.50;;;5.70;96.90;;;6.00;52.33;101771.47;5051449;28;20205;-67
2022/03/20 05:24:38;;;;;;;15.60;8.05;;;5.80;97.20;;;6.11;53.14;101764.19;5051151;28;20734;-67
2022/03/20 05:27:06;;;;;;;14.40;7.88;;;5.90;98.00;;;6.06;55.32;101761.75;5043398;28;20206;-67
2022/03/20 05:29:34;;;;;;;15.95;8.15;;;5.80;99.50;;;6.06;55.13;101766.09;5033729;28;20221;-69
2022/03/20 05:32:02;;;;;;;14.68;6.97;;;5.80;99.90;;;6.06;54.85;101764.34;5036154;28;20220;-69
2022/03/20 05:34:29;;;;;;;13.98;6.88;;;5.80;99.90;;;6.05;55.38;101773.00;5030993;28;20285;-68
2022/03/20 05:36:57;;;;;;;17.17;8.70;;;5.80;99.90;;;5.99;55.56;101755.09;5012260;28;20226;-68
2022/03/20 05:39:24;;;;;;;15.77;8.40;;;5.80;99.90;;;5.98;55.69;101760.34;5021450;28;20202;-67
2022/03/20 05:41:51;;;;;;;15.60;8.88;;;5.80;99.90;;;5.99;55.72;101765.44;5041170;28;20205;-68
2022/03/20 05:44:24;;;;;;;16.95;7.97;;;5.80;99.90;;;5.93;55.78;101773.44;5051297;28;20209;-67
2022/03/20 05:46:53;;;;;;;15.63;8.20;;;5.80;99.90;;;5.96;56.11;101775.91;5036647;28;20312;-70
2022/03/20 05:49:22;;;;;;;13.60;7.20;;;5.70;99.90;;;5.90;55.93;101770.94;5032099;28;20232;-67
2022/03/20 05:51:51;;;;;;;20.08;9.15;;;5.70;99.90;;;5.96;55.94;101767.31;5042752;28;20204;-67
2022/03/20 05:54:18;;;;;;;15.85;8.73;;;5.80;99.90;;;5.92;56.20;101776.91;5051797;28;20288;-69
2022/03/20 05:59:53;;;;;;;12.70;8.05;;;5.70;99.90;;;5.93;56.32;101773.44;4969022;28;20208;-69
2022/03/20 06:02:21;;;;;;;18.25;9.32;;;5.70;99.90;;;6.01;56.80;101768.84;4967829;28;20200;-68
2022/03/20 06:04:48;;;;;;;13.52;8.15;;;5.80;99.90;;;6.00;56.50;101785.28;5000582;28;20220;-67
2022/03/20 06:07:15;;;;;;;11.73;6.82;;;5.80;99.90;;;6.06;56.30;101779.03;5028645;28;20339;-69
2022/03/20 06:09:42;;;;;;;16.55;8.95;;;5.80;99.90;;;6.05;55.75;101780.78;5030973;28;20222;-69
2022/03/20 06:12:10;;;;;;;17.10;8.90;;;5.80;99.90;;;6.11;55.33;101782.31;5030613;28;20198;-68
2022/03/20 06:14:37;;;;;;;15.95;8.52;;;5.90;99.90;;;6.13;55.67;101783.94;5031410;28;20202;-69
2022/03/20 06:17:05;;;;;;;20.70;11.55;;;5.90;99.90;;;6.12;55.63;101784.84;5038134;28;20277;-69
2022/03/20 06:19:34;;;;;;;20.73;11.27;;;5.90;99.90;;;6.19;55.08;101794.13;5050269;28;20213;-71
2022/03/20 06:22:01;;;;;;;16.98;9.73;;;6.00;99.90;;;6.16;55.72;101799.38;5049838;28;20204;-70
2022/03/20 06:24:28;;;;;;;17.70;11.45;;;6.00;99.90;;;6.20;55.41;101794.94;5051554;28;20208;-69
2022/03/20 06:26:55;;;;;;;18.75;9.80;;;6.00;99.90;;;6.13;56.21;101796.06;5048322;28;20232;-68
2022/03/20 06:29:22;;;;;;;21.00;10.25;;;6.00;99.90;;;6.17;55.50;101785.53;5043644;28;20221;-67
2022/03/20 06:31:51;;;;;;;22.75;12.30;;;6.00;99.90;;;6.18;55.39;101776.00;5035878;28;20189;-68
2022/03/20 06:34:21;;;;;;;20.67;11.95;;;6.00;99.90;;;6.17;55.11;101775.19;5030467;28;20209;-68
2022/03/20 06:36:48;;;;;;;13.07;8.48;;;6.00;99.90;;;6.18;55.09;101770.81;5033452;28;20598;-70
2022/03/20 06:39:15;;;;;;;18.48;11.38;;;6.00;99.90;;;6.17;55.00;101764.81;5030149;28;20698;-68
2022/03/20 06:41:42;;;;;;;17.67;9.20;;;6.00;99.90;;;6.17;55.10;101770.00;5036586;28;20207;-67
2022/03/20 06:44:15;;;;;;;14.70;7.80;;;6.00;99.90;;;6.19;56.30;101796.69;5048942;28;20203;-68
2022/03/20 06:46:43;;;;;;;16.98;9.15;;;6.00;99.90;;;6.28;55.43;101797.28;5049705;28;20415;-69
2022/03/20 06:49:10;;;;;;;16.60;8.63;;;6.10;99.90;;;6.25;55.94;101814.63;5031519;28;20224;-68
2022/03/20 06:51:37;;;;;;;20.23;9.68;;;6.20;99.90;;;6.35;55.59;101814.28;5048934;28;20263;-69
2022/03/20 06:54:06;;;;;;;19.60;10.40;;;6.20;99.90;;;6.39;55.81;101815.88;5033680;28;20208;-69
2022/03/20 06:56:33;;;;;;;21.70;10.00;;;6.30;99.90;;;6.37;55.72;101818.50;5037980;28;20229;-67
2022/03/20 06:58:59;;;;;;;17.63;9.50;;;6.20;99.90;;;6.48;55.80;101825.91;5031844;28;20221;-66
2022/03/20 07:01:26;;;;;;;18.85;10.60;;;6.30;99.90;;;6.54;55.32;101823.94;5031547;28;20216;-66
2022/03/20 07:03:54;;;;;;;25.70;12.05;;;6.40;99.90;;;6.63;54.62;101828.78;5030778;28;20210;-69
2022/03/20 07:06:26;;;;;;;22.95;11.35;;;6.50;99.70;;;6.78;53.91;101824.78;5029982;28;20309;-66
2022/03/20 07:09:00;;;;;;;23.40;11.50;;;6.70;99.50;;;6.89;53.15;101825.22;5028589;28;20202;-67
2022/03/20 07:11:32;;;;;;;19.90;11.05;;;6.80;98.90;;;6.98;53.51;101825.72;5022129;28;20634;-69
2022/03/20 07:14:00;;;;;;;16.90;7.30;;;6.90;98.50;;;7.11;53.69;101830.44;5030677;28;20659;-70
2022/03/20 07:16:30;;;;;;;22.80;12.48;;;7.00;98.40;;;7.17;53.11;101827.59;5028207;28;20665;-69
2022/03/20 07:18:58;;;;;;;24.10;11.93;;;7.10;97.80;;;7.43;53.41;101827.44;5029836;28;20870;-69
2022/03/20 07:21:25;;;;;;;42.70;18.42;;;7.40;97.70;;;7.68;52.00;101820.34;5012038;28;20675;-69
2022/03/20 07:23:54;;;;;;;22.07;8.40;;;7.70;96.60;;;7.49;51.53;101830.63;5030985;28;20284;-67
2022/03/20 07:31:53;;;;;;;25.77;12.07;;;8.60;94.00;;;8.83;48.69;101823.94;5049778;28;20603;-70
2022/03/20 07:34:21;;;;;;;23.70;11.70;;;9.00;93.10;;;9.18;48.48;101833.56;5038838;28;20636;-68
2022/03/20 07:36:48;;;;;;;28.93;11.50;;;9.40;92.30;;;9.62;47.65;101841.00;5045023;28;20746;-68
2022/03/20 07:39:15;;;;;;;23.50;12.47;;;9.90;91.30;;;10.18;46.34;101833.81;5049700;28;21251;-68
2022/03/20 07:41:42;;;;;;;21.00;12.60;;;10.50;90.00;;;10.72;45.28;101846.59;5048845;28;20632;-69
2022/03/20 07:44:09;;;;;;;26.30;13.77;;;11.10;86.80;;;11.36;44.08;101838.72;5049134;28;20726;-68
2022/03/20 07:46:38;;;;;;;28.00;13.70;;;11.80;82.80;;;12.06;43.01;101840.75;5026709;28;21079;-68
2022/03/20 07:49:05;;;;;;;25.73;13.27;;;12.50;78.90;;;12.78;42.04;101845.06;5013486;28;20691;-68
2022/03/20 07:51:32;;;;;;;21.40;12.83;;;13.40;74.70;;;13.15;40.62;101853.22;5032608;28;20627;-68
2022/03/20 07:53:59;;;;;;;25.93;15.23;;;13.70;71.60;;;13.30;40.31;101848.78;5049445;28;20715;-68
2022/03/20 07:56:28;;;;;;;24.00;13.50;;;13.90;69.90;;;13.47;40.64;101851.16;5037676;28;21054;-68
2022/03/20 07:58:55;;;;;;;25.50;14.40;;;14.00;69.40;;;13.61;40.05;101848.47;5051092;28;20611;-69
2022/03/20 08:01:22;;;;;;;29.13;13.93;;;14.00;68.80;;;13.93;39.77;101844.56;5049371;28;20659;-68
2022/03/20 08:03:50;;;;;;;26.70;15.73;;;14.20;68.30;;;14.93;38.35;101848.13;5009417;28;21199;-68
2022/03/20 08:06:17;;;;;;;26.40;15.47;;;15.30;66.10;;;16.10;36.37;101862.22;5010087;28;21016;-68
2022/03/20 08:08:45;;;;;;;24.83;15.53;;;16.60;62.10;;;17.24;34.35;101863.84;5037598;28;21005;-68
2022/03/20 08:11:12;;;;;;;27.80;17.03;;;17.90;58.00;;;17.93;32.51;101865.22;5037711;28;20676;-68
2022/03/20 08:13:40;;;;;;;24.20;14.10;;;18.80;54.10;;;16.96;32.40;101870.50;5017886;28;20718;-68
2022/03/20 08:16:09;;;;;;;28.67;15.77;;;18.00;51.20;;;16.63;33.33;101859.97;5042275;28;20694;-68
2022/03/20 08:18:37;;;;;;;28.20;15.87;;;17.30;52.50;;;16.29;33.61;101859.88;5028109;28;21250;-67
2022/03/20 08:21:05;;;;;;;23.33;12.40;;;17.10;52.80;;;16.22;33.63;101855.22;5034303;28;20635;-68
2022/03/20 08:23:32;;;;;;;18.70;10.33;;;17.10;52.80;;;15.33;34.26;101854.00;5001143;28;20645;-68
2022/03/20 08:25:59;;;;;;;25.70;13.10;;;16.20;53.70;;;14.61;35.42;101841.66;5021270;28;20718;-70
2022/03/20 08:28:26;;;;;;;23.93;13.50;;;15.80;53.70;;;15.13;34.86;101850.19;5054152;28;20666;-68
2022/03/20 08:30:54;;;;;;;20.40;11.17;;;15.80;54.00;;;15.46;34.14;101857.47;5050004;28;20655;-69
2022/03/20 08:33:21;;;;;;;20.17;10.07;;;16.00;53.40;;;15.30;34.42;101851.59;5032690;28;20632;-68
2022/03/20 08:35:48;;;;;;;27.67;12.47;;;16.10;53.10;;;15.19;34.97;101859.41;5032636;28;20731;-68
2022/03/20 08:38:15;;;;;;;24.53;13.90;;;15.80;53.60;;;16.01;33.85;101855.06;5027510;28;20662;-66
2022/03/20 08:40:42;;;;;;;18.97;10.27;;;16.30;53.10;;;15.77;33.49;101863.94;5034428;28;20616;-69
2022/03/20 08:43:15;;;;;;;22.73;12.23;;;16.70;51.80;;;15.51;34.44;101856.16;5041822;28;20731;-68
2022/03/20 08:45:44;;;;;;;26.47;14.00;;;16.20;52.40;;;15.37;34.86;101861.56;5031932;28;20819;-68
2022/03/20 08:48:11;;;;;;;21.07;11.00;;;15.90;53.30;;;14.84;35.37;101863.72;5023746;28;20637;-69
2022/03/20 08:50:39;;;;;;;27.70;13.37;;;15.40;54.20;;;15.47;35.70;101859.97;5050704;28;20681;-67
2022/03/20 08:53:06;;;;;;;23.80;10.90;;;15.90;55.10;;;16.20;34.04;101870.28;5030823;28;20660;-69
2022/03/20 08:55:34;;;;;;;28.23;13.57;;;17.20;52.10;;;16.11;33.18;101871.81;5012802;28;21249;-69
2022/03/20 08:58:01;;;;;;;23.90;13.37;;;17.50;50.70;;;16.44;32.86;101878.94;5030764;28;20736;-69
2022/03/20 09:00:29;;;;;;;24.07;12.80;;;17.60;50.40;;;16.87;32.86;101872.06;5045316;28;20630;-69
2022/03/20 09:02:56;;;;;;;26.60;14.30;;;17.80;50.50;;;18.11;31.34;101885.63;5030471;28;21191;-68
2022/03/20 09:05:23;;;;;;;24.17;13.07;;;18.80;49.50;;;18.64;29.78;101888.19;5041586;28;21082;-66
2022/03/20 09:07:51;;;;;;;25.87;14.33;;;20.30;46.90;;;19.67;28.99;101878.06;5029851;28;21060;-69
2022/03/20 09:10:18;;;;;;;27.37;14.00;;;21.30;45.70;;;21.04;26.93;101882.78;5031524;28;20648;-69
2022/03/20 09:12:45;;;;;;;25.60;14.57;;;23.10;42.90;;;20.98;27.00;101880.72;5048013;28;20635;-69
2022/03/20 09:15:19;;;;;;;28.53;15.47;;;23.00;42.10;;;21.78;26.16;101882.59;5035379;28;20647;-69
2022/03/20 09:20:39;;;;;;;19.57;11.23;;;25.10;39.60;;;23.40;24.08;101874.59;5051508;28;20979;-70
2022/03/20 09:23:08;;;;;;;27.43;17.17;;;25.80;38.50;;;23.68;23.65;101884.78;5031271;28;20651;-70
2022/03/20 09:25:35;;;;;;;31.07;17.67;;;26.50;37.50;;;23.48;23.99;101875.44;5030921;28;21297;-69
2022/03/20 09:28:06;;;;;;;27.17;16.33;;;26.00;37.50;;;22.07;25.24;101889.34;5049759;28;21257;-68
2022/03/20 09:30:34;;;;;;;26.80;15.50;;;24.40;38.00;;;20.99;26.90;101873.59;5051868;28;20665;-69
2022/03/20 09:33:02;;;;;;;26.97;16.37;;;22.80;39.80;;;19.75;28.47;101878.19;5016711;28;20648;-68
2022/03/20 09:35:30;;;;;;;29.23;15.80;;;21.10;41.80;;;19.75;28.47;101878.19;5032299;28;20637;-68
2022/03/20 09:37:57;;;;;;;31.50;16.43;;;19.60;43.70;;;17.26;32.76;101877.75;5032485;28;21542;-68
2022/03/20 09:40:33;;;;;;;28.00;15.30;;;18.10;46.20;;;16.79;32.79;101874.47;5031561;28;20674;-68
2022/03/20 09:43:00;;;;;;;28.87;16.77;;;17.20;47.50;;;17.19;33.00;101876.56;5048728;28;20642;-69
2022/03/20 09:45:27;;;;;;;26.23;12.70;;;17.40;48.20;;;18.34;31.12;101884.53;5033708;28;21004;-70
2022/03/20 09:47:57;;;;;;;25.27;14.57;;;19.50;45.90;;;19.28;30.02;101889.53;5050601;28;20635;-68
2022/03/20 09:50:24;;;;;;;25.63;13.83;;;21.00;44.00;;;20.17;28.32;101891.97;5033561;28;21053;-69
2022/03/20 09:52:51;;;;;;;31.73;16.67;;;22.30;42.30;;;20.61;27.94;101896.66;5030160;28;20632;-69
2022/03/20 09:55:19;;;;;;;25.67;13.10;;;22.80;41.30;;;19.33;29.10;101904.06;5030904;28;21222;-70
2022/03/20 09:57:46;;;;;;;14.30;8.73;;;21.70;42.00;;;19.02;30.10;101901.56;5040100;28;20719;-69
2022/03/20 10:00:16;;;;;;;27.20;12.43;;;20.50;43.60;;;17.56;32.17;101902.53;5051253;28;20622;-69
2022/03/20 10:02:43;;;;;;;21.47;10.37;;;19.10;45.40;;;17.45;32.59;101925.44;5050155;28;20640;-70
2022/03/20 10:05:21;;;;;;;22.20;12.33;;;18.60;46.20;;;16.28;34.22;101910.06;5051429;28;20698;-69
2022/03/20 10:07:48;;;;;;;9.60;4.17;;;17.50;48.30;;;16.78;34.12;101920.22;5032759;28;21101;-69
2022/03/20 10:10:25;;;;;;;27.30;14.80;;;17.40;48.70;;;16.96;34.14;101923.22;5042443;28;20756;-69
2022/03/20 10:12:56;;;;;;;16.93;8.20;;;18.00;48.20;;;17.68;32.26;101925.28;5039152;28;20646;-73
2022/03/20 10:15:38;;;;;;;20.43;11.20;;;19.40;46.20;;;17.15;33.50;101919.97;5013841;28;20648;-69
2022/03/20 10:18:20;;;;;;;12.97;6.07;;;18.70;46.70;;;16.58;34.21;101920.94;5019604;28;21010;-66
2022/03/20 10:21:00;;;;;;;20.97;10.03;;;17.60;48.50;;;16.87;34.08;101919.50;5025708;28;21043;-70
2022/03/20 10:23:32;;;;;;;15.03;7.63;;;17.60;49.20;;;16.16;34.99;101916.25;5006960;28;20612;-66
2022/03/20 10:26:11;;;;;;;18.43;9.00;;;17.30;49.30;;;18.15;32.24;101931.94;5031558;28;20659;-68
2022/03/20 10:28:47;;;;;;;22.00;11.43;;;19.60;46.90;;;19.10;31.08;101934.31;5034153;28;20632;-70
2022/03/20 10:31:25;;;;;;;25.23;13.87;;;20.90;44.80;;;19.50;30.67;101936.16;5013823;28;20923;-68
2022/03/20 10:34:07;;;;;;;28.97;13.33;;;22.20;43.20;;;20.46;29.20;101940.53;5028651;28;20671;-68
2022/03/20 10:36:35;;;;;;;7.40;4.60;;;22.90;42.30;;;18.61;31.33;101947.47;5028435;28;20755;-67
2022/03/20 10:39:09;;;;;;;22.27;12.17;;;21.00;43.60;;;17.66;33.23;101947.50;5027934;28;20612;-70
2022/03/20 10:41:38;;;;;;;15.30;8.23;;;19.10;46.10;;;16.53;34.97;101941.50;5041180;28;20666;-70
2022/03/20 10:44:27;;;;;;;18.33;10.47;;;17.60;48.60;;;15.34;37.23;101945.94;5050298;28;20611;-69
2022/03/20 10:47:09;;;;;;;6.80;3.90;;;16.00;51.30;;;15.10;38.04;101928.44;5062858;23;20694;-67
2022/03/20 10:49:38;;;;;;;23.97;10.37;;;15.50;52.70;;;14.96;38.64;101926.78;5070045;28;20702;-67
2022/03/20 10:52:12;;;;;;;20.10;9.37;;;15.10;54.20;;;14.77;39.41;101929.00;5056190;28;20749;-66
2022/03/20 10:54:46;;;;;;;14.10;6.07;;;14.90;55.10;;;14.84;39.85;101929.41;5057115;28;20636;-66